Time;durP1;ratioP1;P1;durP2;ratioP2;P2;SDS_P1;SDS_P2;PMS_P1;PMS_P2;Temp;Humidity;BMP_temperature;BMP_pressure;BME280_temperature;BME280_humidity;BME280_pressure;Samples;Min_cycle;Max_cycle;Signal;HPM_P1;HPM_P2
2022/06/03 00:01:38;;;;;;;14.50;5.10;;;;;;;21.25;66.80;99490.02;25172;1315;3052804;-62
2022/06/03 00:04:16;;;;;;;12.30;3.50;;;;;;;21.00;66.50;99484.63;25126;1315;3053716;-63
2022/06/03 00:07:16;;;;;;;11.00;3.80;;;;;;;20.84;66.40;99488.05;25061;1313;3069019;-64
2022/06/03 00:10:19;;;;;;;10.90;3.70;;;;;;;20.67;66.84;99486.54;25075;1314;3049547;-63
2022/06/03 00:12:58;;;;;;;14.20;2.20;;;;;;;20.64;66.75;99489.22;25059;1315;3055299;-65
2022/06/03 00:15:36;;;;;;;8.90;2.20;;;;;;;21.35;65.19;99488.63;25093;1315;3054991;-65
2022/06/03 00:18:48;;;;;;;16.00;2.50;;;;;;;21.68;63.45;99483.25;25090;1315;3056779;-64
2022/06/03 00:21:55;;;;;;;6.60;2.50;;;;;;;21.51;63.54;99481.96;24997;1315;3049974;-67
2022/06/03 00:24:55;;;;;;;10.00;3.00;;;;;;;21.24;63.97;99481.60;25045;1314;3053296;-65
2022/06/03 00:27:33;;;;;;;9.30;2.70;;;;;;;21.04;64.53;99486.55;25085;1313;3054067;-63
2022/06/03 00:30:21;;;;;;;8.30;2.80;;;;;;;20.83;64.68;99483.73;25043;1315;3071667;-63
2022/06/03 00:33:07;;;;;;;8.80;2.80;;;;;;;20.63;64.98;99481.35;25065;1315;3048260;-64
2022/06/03 00:36:09;;;;;;;7.10;2.50;;;;;;;20.46;65.13;99479.23;25077;1315;3052118;-62
2022/06/03 00:39:00;;;;;;;10.70;3.10;;;;;;;20.30;66.13;99478.18;25046;1313;3055063;-65
2022/06/03 00:42:17;;;;;;;6.40;2.70;;;;;;;20.19;66.44;99480.70;25081;1315;3059332;-65
2022/06/03 00:45:08;;;;;;;5.10;1.90;;;;;;;20.24;66.61;99479.13;24901;1324;3050040;-63
2022/06/03 00:47:53;;;;;;;12.10;1.90;;;;;;;21.05;64.66;99471.84;25060;1313;3054167;-63
2022/06/03 00:50:40;;;;;;;7.90;2.50;;;;;;;21.38;63.52;99468.89;25042;1313;3051889;-64
2022/06/03 00:53:21;;;;;;;5.90;2.00;;;;;;;21.30;63.30;99465.46;25066;1314;3070899;-64
2022/06/03 00:56:00;;;;;;;9.70;2.10;;;;;;;21.15;63.49;99466.19;25083;1315;3051863;-65
2022/06/03 00:58:53;;;;;;;12.30;2.50;;;;;;;20.99;63.71;99464.62;25100;1315;3055313;-61
2022/06/03 01:01:24;;;;;;;6.40;2.40;;;;;;;20.78;63.43;99466.77;25111;1313;3052974;-62
2022/06/03 01:03:58;;;;;;;11.00;2.40;;;;;;;20.67;63.56;99464.15;25059;1313;3026599;-63
2022/06/03 01:06:46;;;;;;;9.70;2.20;;;;;;;20.59;64.19;99456.45;25086;1313;3048932;-63
2022/06/03 01:09:42;;;;;;;8.20;2.00;;;;;;;20.50;64.14;99456.80;25102;1313;3055528;-63
2022/06/03 01:12:33;;;;;;;6.50;2.60;;;;;;;20.44;63.43;99461.19;25044;1313;3053807;-65
2022/06/03 01:15:30;;;;;;;9.00;2.20;;;;;;;20.41;63.21;99458.65;25058;1315;3071052;-63
2022/06/03 01:18:13;;;;;;;10.20;2.20;;;;;;;20.37;62.97;99460.65;25112;1314;3049205;-65
2022/06/03 01:21:03;;;;;;;8.00;2.30;;;;;;;20.31;62.97;99456.39;25136;1313;3053751;-62
2022/06/03 01:23:54;;;;;;;2.70;1.70;;;;;;;20.30;62.81;99460.27;25129;1315;3052366;-64
2022/06/03 01:27:01;;;;;;;5.90;1.90;;;;;;;20.24;63.31;99462.63;25110;1313;3056933;-64
2022/06/03 01:29:47;;;;;;;8.70;2.10;;;;;;;20.20;63.17;99456.33;25095;1313;3052936;-66
2022/06/03 01:32:38;;;;;;;13.40;2.10;;;;;;;20.17;62.98;99457.95;25098;1315;3053565;-63
2022/06/03 01:35:13;;;;;;;10.30;2.30;;;;;;;20.15;63.20;99459.77;25083;1313;3052730;-65
2022/06/03 01:37:50;;;;;;;8.30;2.20;;;;;;;20.13;63.68;99467.13;25051;1315;3071152;-65
2022/06/03 01:40:37;;;;;;;7.50;2.20;;;;;;;20.08;63.45;99467.95;25079;1315;3052197;-63
2022/06/03 01:43:44;;;;;;;4.90;1.40;;;;;;;20.12;63.76;99468.41;25045;1314;3054901;-64
2022/06/03 01:46:25;;;;;;;5.10;1.40;;;;;;;21.01;61.69;99461.39;25100;1313;3055128;-61
2022/06/03 01:49:02;;;;;;;7.30;1.40;;;;;;;21.45;60.32;99461.02;25063;1313;3057317;-62
2022/06/03 01:51:34;;;;;;;9.50;2.00;;;;;;;21.45;60.09;99466.09;25054;1315;3050512;-64
2022/06/03 01:54:41;;;;;;;6.30;1.70;;;;;;;21.24;60.42;99466.79;25061;1315;3026865;-63
2022/06/03 01:57:36;;;;;;;7.30;2.30;;;;;;;21.02;60.87;99469.40;25094;1313;3054053;-62
2022/06/03 02:00:20;;;;;;;7.80;2.10;;;;;;;20.81;61.49;99475.71;25083;1313;3071399;-64
2022/06/03 02:03:35;;;;;;;10.50;2.00;;;;;;;20.59;62.32;99479.14;25060;1315;3051640;-64
2022/06/03 02:06:23;;;;;;;6.70;2.00;;;;;;;20.42;62.61;99479.60;24852;1323;3054577;-61
2022/06/03 02:08:58;;;;;;;7.30;2.10;;;;;;;20.37;62.40;99475.73;25047;1315;3055374;-61
2022/06/03 02:11:46;;;;;;;9.00;2.60;;;;;;;20.29;62.91;99480.67;25061;1315;3056923;-65
2022/06/03 02:14:27;;;;;;;7.90;2.60;;;;;;;20.17;63.67;99484.48;25097;1315;3052355;-64
2022/06/03 02:16:56;;;;;;;11.50;2.30;;;;;;;20.14;63.54;99487.29;25091;1315;3056821;-63
2022/06/03 02:19:47;;;;;;;7.00;2.40;;;;;;;20.15;63.06;99494.86;25045;1315;3029129;-63
2022/06/03 02:22:34;;;;;;;9.20;2.20;;;;;;;20.13;63.60;99493.65;25032;1313;3071005;-66
2022/06/03 02:25:18;;;;;;;17.00;2.70;;;;;;;20.05;64.19;99493.66;25086;1315;3051760;-63
2022/06/03 02:27:59;;;;;;;10.70;2.30;;;;;;;20.01;64.32;99492.72;25041;1313;3052753;-66
2022/06/03 02:30:34;;;;;;;12.90;2.90;;;;;;;19.97;64.72;99497.02;25127;1313;3055621;-62
2022/06/03 02:33:34;;;;;;;9.30;1.40;;;;;;;20.01;64.62;99499.95;25106;1315;3059173;-63
2022/06/03 02:36:22;;;;;;;12.00;1.90;;;;;;;20.88;62.95;99494.91;25066;1313;3052454;-63
2022/06/03 02:39:37;;;;;;;7.70;2.20;;;;;;;21.41;61.51;99496.70;25096;1313;3055618;-65
2022/06/03 02:42:06;;;;;;;5.80;2.00;;;;;;;21.39;60.99;99497.42;25020;1315;3055100;-64
2022/06/03 02:44:57;;;;;;;12.10;2.10;;;;;;;21.26;61.22;99498.62;25126;1313;3026100;-63
2022/06/03 02:47:28;;;;;;;9.50;1.90;;;;;;;21.09;61.31;99502.52;25035;1313;3055240;-63
2022/06/03 02:50:04;;;;;;;6.70;2.00;;;;;;;20.97;61.64;99505.81;25033;1315;3026501;-65
2022/06/03 02:52:39;;;;;;;6.00;2.40;;;;;;;20.86;62.39;99510.85;25122;1313;3068492;-65
2022/06/03 02:55:19;;;;;;;6.90;2.80;;;;;;;20.78;62.65;99511.08;25103;1313;3048729;-65
2022/06/03 02:57:54;;;;;;;8.40;2.30;;;;;;;20.73;62.93;99514.42;25061;1313;3055335;-63
2022/06/03 03:00:29;;;;;;;9.20;2.40;;;;;;;20.66;62.99;99522.04;25127;1313;3052617;-64
2022/06/03 03:03:43;;;;;;;7.00;2.10;;;;;;;20.61;63.33;99524.19;25117;1313;3059456;-65
2022/06/03 03:06:40;;;;;;;12.00;2.90;;;;;;;20.56;63.97;99532.46;25025;1313;3051344;-64
2022/06/03 03:09:40;;;;;;;22.70;8.50;;;;;;;20.53;65.05;99538.85;25101;1313;3053560;-63
2022/06/03 03:12:15;;;;;;;6.90;1.70;;;;;;;20.60;65.13;99536.93;25101;1313;3051021;-62
2022/06/03 03:15:06;;;;;;;12.40;2.60;;;;;;;21.35;62.40;99530.98;25058;1315;3071487;-62
2022/06/03 03:17:52;;;;;;;8.30;2.10;;;;;;;21.88;60.42;99530.45;25100;1315;3054143;-62
2022/06/03 03:20:25;;;;;;;16.50;2.30;;;;;;;21.86;59.80;99532.98;25126;1313;3055461;-62
2022/06/03 03:23:05;;;;;;;;;;;;;;;21.79;59.86;99532.13;25098;1315;3055216;-63
2022/06/03 03:25:47;;;;;;;8.20;2.20;;;;;;;21.61;60.18;99534.73;25040;1313;3058740;-63
2022/06/03 03:28:23;;;;;;;10.80;2.50;;;;;;;21.50;61.15;99535.38;25006;1313;3051945;-63
2022/06/03 03:31:06;;;;;;;16.40;3.10;;;;;;;21.38;61.39;99535.86;25099;1313;3055111;-63
2022/06/03 03:33:59;;;;;;;8.00;2.30;;;;;;;21.29;61.75;99538.28;25041;1313;3054749;-65
2022/06/03 03:36:45;;;;;;;14.90;2.60;;;;;;;21.23;62.58;99541.21;25010;1315;3071824;-63
2022/06/03 03:39:26;;;;;;;9.30;2.50;;;;;;;21.21;62.90;99542.61;25016;1315;3048906;-65
2022/06/03 03:42:23;;;;;;;9.20;2.50;;;;;;;21.18;63.28;99545.56;25079;1315;3051627;-64
2022/06/03 03:44:58;;;;;;;10.80;2.70;;;;;;;21.15;63.54;99548.27;25052;1313;3055699;-63
2022/06/03 03:48:00;;;;;;;17.30;2.90;;;;;;;21.13;63.49;99552.23;25040;1313;3059392;-62
2022/06/03 03:50:58;;;;;;;9.20;2.70;;;;;;;21.13;63.09;99553.77;25058;1315;3051566;-64
2022/06/03 03:53:59;;;;;;;9.50;2.30;;;;;;;21.16;62.86;99561.12;25118;1313;3053362;-64
2022/06/03 03:56:34;;;;;;;6.70;2.30;;;;;;;21.18;63.27;99564.14;25034;1313;3051765;-67
2022/06/03 03:59:39;;;;;;;11.50;2.50;;;;;;;21.23;62.95;99564.36;25081;1315;3071805;-64
2022/06/03 04:02:40;;;;;;;;;;;;;;;21.29;63.12;99562.95;25007;1313;3049140;-62
2022/06/03 04:05:47;;;;;;;12.50;3.60;;;;;;;21.27;63.55;99570.66;25006;1313;3052412;-65
2022/06/03 04:08:36;;;;;;;8.10;2.90;;;;;;;21.34;63.26;99572.80;25053;1313;3055461;-62
2022/06/03 04:11:34;;;;;;;18.40;3.70;;;;;;;21.42;63.13;99577.73;25087;1313;3057291;-63
2022/06/03 04:14:25;;;;;;;16.30;3.30;;;;;;;21.44;63.33;99588.30;25059;1315;3050342;-65
2022/06/03 04:17:29;;;;;;;14.50;2.50;;;;;;;21.54;63.48;99592.33;25037;1314;3055441;-66
2022/06/03 04:20:02;;;;;;;;;;;;;;;22.44;60.55;99599.40;25080;1315;3051695;-63
2022/06/03 04:22:41;;;;;;;10.90;2.70;;;;;;;22.86;58.25;99606.19;25103;1318;3026812;-63
2022/06/03 04:25:16;;;;;;;5.50;2.40;;;;;;;22.93;58.21;99601.56;25274;1313;3051809;-64
2022/06/03 04:27:58;;;;;;;9.50;2.50;;;;;;;22.91;58.35;99601.27;25329;1313;3052425;-61
2022/06/03 04:30:50;;;;;;;11.00;2.90;;;;;;;22.87;58.47;99605.27;25252;1315;3051225;-64
2022/06/03 04:33:22;;;;;;;14.70;3.10;;;;;;;22.70;58.58;99621.38;25139;1315;3058911;-64
2022/06/03 04:36:10;;;;;;;16.00;2.70;;;;;;;22.42;59.65;99641.91;25096;1315;3026521;-64
2022/06/03 04:39:07;;;;;;;13.50;3.20;;;;;;;22.31;59.62;99647.89;25080;1313;3055426;-64
2022/06/03 04:41:52;;;;;;;16.40;3.40;;;;;;;22.19;58.85;99650.08;25081;1315;3053843;-64
2022/06/03 04:44:21;;;;;;;13.40;4.70;;;;;;;22.09;60.80;99647.15;25085;1315;3069471;-62
2022/06/03 04:47:09;;;;;;;23.40;11.30;;;;;;;21.92;63.43;99652.51;25053;1313;3026862;-62
2022/06/03 04:49:41;;;;;;;43.20;17.90;;;;;;;21.72;65.51;99659.23;25090;1313;3054349;-63
2022/06/03 04:52:37;;;;;;;46.10;23.50;;;;;;;21.50;65.35;99657.90;25051;1313;3026483;-65
2022/06/03 04:55:34;;;;;;;59.10;25.80;;;;;;;21.22;67.27;99655.29;25030;1315;3048589;-65
2022/06/03 04:58:31;;;;;;;65.00;21.50;;;;;;;21.30;68.04;99649.70;25099;1315;3051554;-64
2022/06/03 05:01:29;;;;;;;56.90;23.00;;;;;;;21.92;65.09;99645.09;25098;1315;3053168;-65
2022/06/03 05:04:01;;;;;;;51.90;16.30;;;;;;;22.22;64.23;99640.14;25022;1313;3058800;-64
2022/06/03 05:06:48;;;;;;;28.50;10.90;;;;;;;22.10;64.36;99644.73;25027;1313;3026500;-62
2022/06/03 05:09:30;;;;;;;27.60;9.80;;;;;;;21.90;65.08;99637.98;25120;1313;3055250;-64
2022/06/03 05:12:07;;;;;;;27.90;10.30;;;;;;;21.96;65.06;99633.58;25058;1316;3051892;-64
2022/06/03 05:15:11;;;;;;;27.00;9.30;;;;;;;21.75;65.66;99639.30;25126;1313;3070258;-63
2022/06/03 05:18:02;;;;;;;21.30;9.30;;;;;;;21.69;65.93;99640.35;25109;1315;3051980;-63
2022/06/03 05:20:38;;;;;;;23.00;9.90;;;;;;;21.91;65.69;99636.79;25079;1313;3052599;-66
2022/06/03 05:23:09;;;;;;;23.30;8.90;;;;;;;21.96;64.71;99636.58;25126;1313;3055065;-66
2022/06/03 05:25:56;;;;;;;26.60;9.20;;;;;;;21.97;64.85;99635.71;25133;1314;3027773;-62
2022/06/03 05:28:31;;;;;;;27.50;8.90;;;;;;;21.98;64.45;99633.15;25109;1313;3051047;-63
2022/06/03 05:31:22;;;;;;;17.60;5.90;;;;;;;22.17;63.99;99633.45;25044;1315;3053918;-64
2022/06/03 05:34:02;;;;;;;19.90;6.10;;;;;;;23.08;60.83;99633.79;25108;1317;3051727;-64
2022/06/03 05:36:52;;;;;;;23.10;7.20;;;;;;;23.78;59.26;99627.29;24775;1312;3506612;-66
2022/06/03 05:39:27;;;;;;;24.50;7.10;;;;;;;23.93;57.87;99639.23;25128;1313;3052262;-64
2022/06/03 05:42:27;;;;;;;19.20;7.90;;;;;;;23.55;57.97;99645.31;25049;1313;3054365;-65
2022/06/03 05:45:25;;;;;;;21.10;7.70;;;;;;;23.32;59.96;99657.92;25124;1313;3052542;-64
2022/06/03 05:48:03;;;;;;;19.80;5.90;;;;;;;23.18;60.28;99664.87;25021;1313;3059626;-65
2022/06/03 05:50:51;;;;;;;23.50;6.00;;;;;;;22.96;61.14;99669.06;25056;1313;3052459;-67
2022/06/03 05:53:44;;;;;;;16.90;6.00;;;;;;;23.03;61.19;99665.69;25100;1313;3053408;-64
2022/06/03 05:56:42;;;;;;;45.40;20.30;;;;;;;23.01;60.00;99664.08;25121;1313;3052551;-64
2022/06/03 05:59:11;;;;;;;45.30;18.10;;;;;;;22.85;60.58;99672.95;25105;1313;3071026;-64
2022/06/03 06:02:13;;;;;;;81.20;30.40;;;;;;;22.80;61.34;99675.84;25133;1313;3026475;-64
2022/06/03 06:04:47;;;;;;;57.40;24.80;;;;;;;22.67;61.72;99676.54;25081;1313;3055184;-64
2022/06/03 06:07:43;;;;;;;51.20;22.30;;;;;;;22.55;63.23;99677.63;25070;1315;3054977;-64
2022/06/03 06:10:30;;;;;;;33.60;15.60;;;;;;;22.27;63.40;99673.78;25112;1313;3058732;-65
2022/06/03 06:13:21;;;;;;;39.40;17.90;;;;;;;22.14;62.05;99667.86;25045;1315;3052018;-61
2022/06/03 06:15:56;;;;;;;39.80;16.90;;;;;;;22.08;60.51;99660.98;25038;1313;3053355;-64
2022/06/03 06:18:48;;;;;;;38.30;18.30;;;;;;;22.13;59.81;99654.95;25039;1315;3051079;-62
2022/06/03 06:21:51;;;;;;;52.90;22.50;;;;;;;22.22;60.45;99659.91;25140;1313;3069790;-66
2022/06/03 06:24:27;;;;;;;51.40;23.10;;;;;;;22.34;61.43;99656.46;25049;1315;3052173;-65
2022/06/03 06:27:44;;;;;;;43.00;18.50;;;;;;;22.52;61.91;99659.02;25044;1315;3055190;-61
2022/06/03 06:30:29;;;;;;;33.50;11.90;;;;;;;22.61;61.76;99656.74;25063;1313;3052991;-65
2022/06/03 06:33:32;;;;;;;24.80;8.50;;;;;;;22.70;60.50;99653.48;25200;1315;3059593;-63
2022/06/03 06:36:41;;;;;;;24.20;7.90;;;;;;;22.60;59.63;99655.81;25137;1313;3052423;-64
2022/06/03 06:39:27;;;;;;;22.10;7.70;;;;;;;22.66;59.44;99652.77;25057;1315;3052662;-65
2022/06/03 06:42:10;;;;;;;20.80;7.60;;;;;;;22.74;60.32;99658.39;25036;1314;3054161;-64
2022/06/03 06:44:52;;;;;;;19.20;7.50;;;;;;;22.82;60.09;99653.30;25051;1316;3069946;-63
2022/06/03 06:47:35;;;;;;;24.20;7.50;;;;;;;22.81;59.85;99654.71;25108;1312;3052322;-64
2022/06/03 06:50:43;;;;;;;31.00;7.90;;;;;;;22.73;59.65;99662.72;25033;1312;3054876;-63
2022/06/03 06:53:38;;;;;;;27.50;8.60;;;;;;;22.78;59.50;99659.05;24947;1312;3053715;-63
2022/06/03 06:56:20;;;;;;;32.20;8.20;;;;;;;22.81;59.07;99654.45;25081;1312;3058017;-63
2022/06/03 06:58:58;;;;;;;24.20;8.80;;;;;;;22.88;59.14;99655.64;25022;1312;3052880;-61
2022/06/03 07:01:36;;;;;;;26.20;8.60;;;;;;;22.87;58.57;99657.76;25162;1312;3053780;-63
2022/06/03 07:04:11;;;;;;;21.30;7.70;;;;;;;22.96;58.50;99662.30;25108;1312;3054593;-63
2022/06/03 07:06:41;;;;;;;25.70;8.10;;;;;;;22.88;57.82;99665.86;25054;1312;3068656;-65
2022/06/03 07:09:10;;;;;;;22.30;7.20;;;;;;;22.87;58.62;99663.48;25063;1312;3027427;-64
2022/06/03 07:11:43;;;;;;;24.50;8.20;;;;;;;22.98;58.37;99658.11;25073;1312;3026872;-64
2022/06/03 07:14:17;;;;;;;19.90;7.30;;;;;;;23.00;58.07;99662.56;25035;1312;3029512;-64
2022/06/03 07:20:00;;;;;;;23.00;7.50;;;;;;;23.34;56.57;99659.45;25054;1313;3052989;-64
2022/06/03 07:22:46;;;;;;;23.30;7.40;;;;;;;23.44;56.37;99669.25;25091;1313;3053004;-63
2022/06/03 07:25:24;;;;;;;26.30;8.20;;;;;;;23.69;56.44;99658.77;25149;1313;3054218;-62
2022/06/03 07:28:06;;;;;;;20.00;8.10;;;;;;;23.78;55.22;99660.96;25074;1314;3070772;-64
2022/06/03 07:30:46;;;;;;;26.50;8.20;;;;;;;23.90;55.69;99662.42;25123;1313;3049017;-63
2022/06/03 07:33:21;;;;;;;27.00;7.80;;;;;;;24.12;55.22;99661.41;25109;1315;3055071;-64
2022/06/03 07:35:55;;;;;;;24.60;7.40;;;;;;;24.19;53.56;99662.99;25126;1313;3054794;-65
2022/06/03 07:38:30;;;;;;;23.90;7.60;;;;;;;24.10;53.11;99663.38;25086;1312;3058322;-64
2022/06/03 07:41:31;;;;;;;26.30;7.00;;;;;;;24.28;53.11;99664.61;25113;1312;3049068;-64
2022/06/03 07:44:16;;;;;;;21.00;7.20;;;;;;;24.39;52.44;99671.55;25115;1313;3055842;-63
2022/06/03 07:46:53;;;;;;;24.90;7.80;;;;;;;24.38;52.40;99674.51;25117;1313;3054513;-62
2022/06/03 07:49:22;;;;;;;22.90;7.20;;;;;;;24.42;52.63;99674.50;25042;1312;3071633;-65
2022/06/03 07:51:53;;;;;;;25.90;7.30;;;;;;;24.53;52.48;99677.05;25059;1315;3026037;-64
2022/06/03 07:54:35;;;;;;;28.50;7.30;;;;;;;24.67;52.57;99676.88;25123;1313;3026544;-63
2022/06/03 07:57:07;;;;;;;30.70;7.70;;;;;;;24.81;51.91;99673.11;25116;1312;3054918;-63
2022/06/03 07:59:40;;;;;;;17.60;7.90;;;;;;;24.79;52.06;99673.74;25084;1312;3026467;-64
2022/06/03 08:02:20;;;;;;;26.80;7.90;;;;;;;24.97;52.29;99674.70;25062;1317;3026628;-63
2022/06/03 08:05:13;;;;;;;23.50;7.70;;;;;;;24.89;51.63;99687.23;25129;1312;3055440;-64
2022/06/03 08:13:21;;;;;;;24.50;7.10;;;;;;;24.82;53.60;99676.44;25087;1312;3052003;-65
2022/06/03 08:15:50;;;;;;;23.40;6.90;;;;;;;24.97;53.57;99686.27;25097;1312;3026756;-63
2022/06/03 08:18:19;;;;;;;21.60;7.00;;;;;;;24.95;54.13;99684.63;25122;1312;3026160;-68
2022/06/03 08:21:03;;;;;;;13.70;5.90;;;;;;;25.06;54.25;99680.63;25123;1316;3051497;-63
2022/06/03 08:23:33;;;;;;;16.70;7.00;;;;;;;25.18;54.37;99673.95;25030;1318;3054158;-64
2022/06/03 08:26:11;;;;;;;17.20;6.50;;;;;;;25.15;54.44;99670.99;25107;1312;3027033;-64
2022/06/03 08:28:44;;;;;;;18.80;7.00;;;;;;;25.18;55.31;99675.04;25022;1313;3056898;-63
2022/06/03 08:31:13;;;;;;;17.30;6.80;;;;;;;25.50;55.22;99676.31;25121;1312;3049066;-64
2022/06/03 08:33:48;;;;;;;40.70;20.70;;;;;;;25.78;54.65;99674.00;25102;1315;3026551;-64
2022/06/03 08:36:21;;;;;;;18.10;7.10;;;;;;;26.01;54.13;99673.74;25105;1312;3051928;-63
2022/06/03 08:39:02;;;;;;;34.40;17.00;;;;;;;26.04;53.63;99671.96;25053;1312;3071144;-66
2022/06/03 08:41:49;;;;;;;30.40;16.00;;;;;;;26.14;54.02;99671.61;25114;1312;3050946;-64
2022/06/03 08:44:46;;;;;;;24.50;8.60;;;;;;;26.21;53.12;99671.48;25093;1312;3054629;-64
2022/06/03 08:47:37;;;;;;;21.30;5.80;;;;;;;26.31;52.91;99678.71;25112;1312;3055601;-63
2022/06/03 08:50:13;;;;;;;22.90;5.40;;;;;;;26.13;52.96;99684.18;25053;1312;3059265;-62
2022/06/03 08:53:11;;;;;;;11.10;4.60;;;;;;;26.14;52.96;99687.77;25095;1312;3049811;-62
2022/06/03 08:55:59;;;;;;;14.20;4.90;;;;;;;25.98;52.62;99692.39;25070;1312;3055284;-65
2022/06/03 08:58:36;;;;;;;13.90;5.10;;;;;;;25.75;53.71;99701.48;25098;1312;3052061;-64
2022/06/03 09:01:11;;;;;;;11.90;4.80;;;;;;;25.84;54.97;99705.62;25109;1312;3069821;-63
2022/06/03 09:03:50;;;;;;;17.20;5.00;;;;;;;25.90;55.28;99705.98;25124;1312;3052693;-63
2022/06/03 09:06:38;;;;;;;13.40;4.70;;;;;;;25.85;55.62;99709.20;25135;1316;3053570;-63
2022/06/03 09:09:36;;;;;;;12.90;4.50;;;;;;;25.92;56.08;99717.31;25079;1317;3054925;-63
2022/06/03 09:12:05;;;;;;;15.90;5.00;;;;;;;25.96;56.62;99723.73;25101;1312;3057386;-64
2022/06/03 09:14:35;;;;;;;14.40;4.80;;;;;;;26.09;56.70;99719.02;25079;1312;3028480;-66
2022/06/03 09:17:13;;;;;;;17.00;5.40;;;;;;;26.06;56.63;99724.05;25069;1313;3026233;-64
2022/06/03 09:19:43;;;;;;;17.60;5.10;;;;;;;26.18;56.26;99721.77;25095;1312;3053863;-63
2022/06/03 09:22:15;;;;;;;17.40;5.30;;;;;;;26.29;55.65;99728.03;25062;1315;3026772;-63
2022/06/03 09:24:44;;;;;;;17.80;5.30;;;;;;;26.29;55.58;99732.17;25065;1312;3026942;-64
2022/06/03 09:27:16;;;;;;;18.00;5.30;;;;;;;26.29;55.29;99734.48;25082;1312;3026519;-62
2022/06/03 09:29:48;;;;;;;15.50;5.10;;;;;;;26.16;55.11;99746.21;25152;1312;3068998;-66
2022/06/03 09:32:19;;;;;;;17.30;5.40;;;;;;;26.18;55.54;99743.14;25125;1312;3052158;-63
2022/06/03 09:34:55;;;;;;;16.40;4.80;;;;;;;26.14;54.94;99745.74;25035;1315;3026449;-62
2022/06/03 09:37:30;;;;;;;16.10;4.60;;;;;;;26.23;53.74;99743.08;25106;1312;3054733;-64
2022/06/03 09:39:59;;;;;;;23.20;4.60;;;;;;;26.45;53.41;99741.63;25109;1313;3028379;-63
2022/06/03 09:42:30;;;;;;;19.40;4.80;;;;;;;26.47;53.43;99740.13;25108;1313;3027491;-62
2022/06/03 09:45:01;;;;;;;13.90;4.90;;;;;;;26.39;53.49;99746.79;25102;1315;3028076;-63
2022/06/03 09:47:31;;;;;;;7.90;3.70;;;;;;;26.08;53.91;99751.88;25070;1315;3026952;-63
2022/06/03 09:50:00;;;;;;;15.10;4.60;;;;;;;26.12;53.92;99736.61;25037;1312;3028290;-64
2022/06/03 09:52:29;;;;;;;16.70;3.80;;;;;;;26.35;53.04;99726.19;25114;1315;3055466;-64
2022/06/03 09:55:00;;;;;;;14.90;4.20;;;;;;;26.40;52.80;99736.34;25076;1312;3026688;-64
2022/06/03 09:57:38;;;;;;;11.20;4.10;;;;;;;26.21;53.35;99724.50;25156;1312;3049997;-67
2022/06/03 10:00:23;;;;;;;19.40;4.70;;;;;;;26.42;53.45;99714.52;25214;1312;3053020;-64
2022/06/03 10:02:56;;;;;;;16.80;4.40;;;;;;;26.83;52.45;99713.20;25064;1312;3055326;-64
2022/06/03 10:05:25;;;;;;;15.30;3.70;;;;;;;27.05;51.69;99711.32;25138;1312;3026370;-65
2022/06/03 10:08:03;;;;;;;14.70;4.50;;;;;;;27.29;50.16;99708.54;25134;1312;3026793;-67
2022/06/03 10:13:20;;;;;;;13.10;3.80;;;;;;;27.17;49.14;99710.17;25165;1312;3056043;-67
2022/06/03 10:15:55;;;;;;;19.20;3.70;;;;;;;27.12;49.20;99708.84;25209;1312;3028995;-65
2022/06/03 10:18:48;;;;;;;14.80;3.70;;;;;;;27.13;49.32;99706.94;25147;1314;3052107;-66
2022/06/03 10:21:18;;;;;;;12.50;4.40;;;;;;;27.27;49.55;99697.58;25156;1312;3052063;-65
2022/06/03 10:23:57;;;;;;;10.10;3.30;;;;;;;27.35;48.83;99705.44;25112;1313;3026795;-63
2022/06/03 10:26:35;;;;;;;14.70;4.00;;;;;;;27.07;48.49;99703.23;25167;1313;3052965;-65
2022/06/03 10:29:12;;;;;;;12.90;3.60;;;;;;;27.03;48.82;99713.58;25124;1313;3055788;-64
2022/06/03 10:31:41;;;;;;;7.80;3.30;;;;;;;27.06;48.73;99706.51;25090;1313;3058685;-63
2022/06/03 10:34:11;;;;;;;12.90;3.60;;;;;;;27.38;48.22;99701.07;25209;1313;3026601;-66
2022/06/03 10:36:42;;;;;;;13.00;3.60;;;;;;;27.36;48.46;99704.21;25062;1313;3052790;-65
2022/06/03 10:39:14;;;;;;;7.10;3.10;;;;;;;27.18;48.01;99710.25;25120;1315;3029602;-65
2022/06/03 10:41:45;;;;;;;12.10;3.40;;;;;;;27.21;47.30;99706.64;25140;1313;3026449;-66
2022/06/03 10:44:23;;;;;;;13.30;3.90;;;;;;;27.23;46.67;99697.80;25202;1313;3028441;-66
2022/06/03 10:47:02;;;;;;;17.90;4.10;;;;;;;27.49;46.70;99700.16;25174;1313;3053877;-66
2022/06/03 10:49:34;;;;;;;9.70;3.30;;;;;;;27.77;46.37;99698.20;25134;1313;3070836;-65
2022/06/03 11:03:29;;;;;;;14.50;4.10;;;;;;;28.25;46.63;99690.36;25128;1313;3053050;-64
2022/06/03 11:06:08;;;;;;;14.00;3.90;;;;;;;28.28;46.22;99699.22;25149;1313;3053243;-66
2022/06/03 11:08:47;;;;;;;11.00;3.10;;;;;;;27.96;46.17;99699.02;25063;1313;3051870;-66
2022/06/03 11:11:39;;;;;;;12.10;3.10;;;;;;;27.90;45.85;99695.64;25054;1313;3068689;-67
2022/06/03 11:14:27;;;;;;;10.40;3.00;;;;;;;28.19;46.85;99689.34;25077;1313;3049735;-62
2022/06/03 11:17:12;;;;;;;13.10;3.30;;;;;;;28.33;47.18;99697.64;25103;1315;3053255;-63
2022/06/03 11:19:45;;;;;;;10.30;3.40;;;;;;;28.01;47.87;99701.52;25201;1313;3052878;-64
2022/06/03 11:22:16;;;;;;;9.60;3.60;;;;;;;28.24;46.86;99696.06;25157;1313;3026397;-65
2022/06/03 11:25:04;;;;;;;14.30;3.30;;;;;;;28.36;46.76;99685.52;25073;1313;3026577;-67
2022/06/03 11:27:50;;;;;;;8.10;3.30;;;;;;;28.23;46.48;99695.67;25091;1315;3055181;-65
2022/06/03 11:30:43;;;;;;;13.50;3.70;;;;;;;28.46;46.39;99679.77;25149;1313;3051479;-65
2022/06/03 11:33:26;;;;;;;10.10;3.70;;;;;;;28.80;45.27;99683.91;25077;1314;3073019;-65
2022/06/03 11:36:03;;;;;;;8.10;2.90;;;;;;;28.87;45.16;99683.58;25098;1312;3049341;-63
2022/06/03 11:38:40;;;;;;;12.00;3.60;;;;;;;28.86;44.89;99673.10;25149;1312;3052837;-64
2022/06/03 11:41:14;;;;;;;18.60;3.40;;;;;;;29.00;44.72;99680.58;25084;1312;3055028;-66
2022/06/03 11:44:08;;;;;;;11.40;3.40;;;;;;;28.88;44.46;99673.08;25119;1312;3060195;-65
2022/06/03 11:46:58;;;;;;;11.50;3.40;;;;;;;28.83;44.80;99674.06;25130;1313;3050145;-65
2022/06/03 11:49:28;;;;;;;10.60;3.20;;;;;;;28.88;44.92;99671.56;25132;1312;3055442;-65
2022/06/03 11:51:57;;;;;;;10.10;3.20;;;;;;;29.19;44.29;99670.98;25116;1312;3028329;-63
2022/06/03 11:54:26;;;;;;;10.80;3.60;;;;;;;29.41;44.03;99671.69;25082;1313;3028928;-66
2022/06/03 11:56:55;;;;;;;15.00;3.60;;;;;;;29.43;43.85;99672.28;25135;1312;3054713;-64
2022/06/03 11:59:39;;;;;;;11.60;3.70;;;;;;;29.38;44.43;99667.70;25089;1313;3027705;-63
2022/06/03 12:02:14;;;;;;;13.90;3.60;;;;;;;29.88;43.60;99671.83;25142;1313;3053918;-67
2022/06/03 12:05:15;;;;;;;10.90;3.60;;;;;;;29.88;43.52;99675.07;25061;1313;3053983;-65
2022/06/03 12:08:03;;;;;;;15.20;4.10;;;;;;;29.64;44.32;99687.13;25188;1313;3054642;-65
2022/06/03 12:10:43;;;;;;;9.70;3.70;;;;;;;29.42;44.90;99687.59;25049;1312;3071858;-65
2022/06/03 12:13:19;;;;;;;14.80;4.80;;;;;;;29.32;45.31;99683.33;25173;1313;3051360;-64
2022/06/03 12:16:06;;;;;;;13.00;4.00;;;;;;;29.42;44.88;99677.48;25112;1312;3055016;-65
2022/06/03 12:18:36;;;;;;;14.30;4.30;;;;;;;29.33;45.15;99681.79;25111;1313;3055603;-67
2022/06/03 12:21:14;;;;;;;12.00;4.70;;;;;;;29.21;45.66;99680.61;25072;1312;3027347;-65
2022/06/03 12:23:51;;;;;;;13.70;4.30;;;;;;;29.19;45.55;99679.74;25170;1313;3049320;-64
2022/06/03 12:26:27;;;;;;;12.40;3.90;;;;;;;28.90;45.40;99674.88;25173;1312;3053025;-65
2022/06/03 12:29:01;;;;;;;9.10;3.30;;;;;;;28.73;45.70;99670.52;25080;1312;3051871;-64
2022/06/03 12:31:41;;;;;;;16.70;4.40;;;;;;;28.74;45.49;99671.38;25081;1312;3070694;-63
2022/06/03 12:34:20;;;;;;;13.60;3.90;;;;;;;28.76;45.67;99676.55;25128;1313;3049754;-64
2022/06/03 12:37:02;;;;;;;12.60;4.10;;;;;;;28.63;46.27;99675.86;25129;1312;3052705;-67
2022/06/03 12:39:54;;;;;;;15.00;4.40;;;;;;;28.54;46.74;99669.98;25109;1313;3051746;-64
2022/06/03 12:42:26;;;;;;;12.30;4.60;;;;;;;28.56;47.00;99672.75;25153;1312;3057039;-64
2022/06/03 12:45:02;;;;;;;13.30;4.10;;;;;;;28.65;46.56;99677.33;25115;1312;3026295;-65
2022/06/03 12:47:31;;;;;;;14.40;4.40;;;;;;;28.68;46.53;99675.67;25159;1312;3052160;-64